sensor_id;sensor_type;location;lat;lon;timestamp;P1;durP1;ratioP1;P2;durP2;ratioP2
14883;SDS011;7534;50.762;7.000;2022-12-29T00:02:11;0.93;;;0.90;;
14883;SDS011;7534;50.762;7.000;2022-12-29T00:04:38;0.70;;;0.70;;
14883;SDS011;7534;50.762;7.000;2022-12-29T00:07:05;0.80;;;0.80;;
14883;SDS011;7534;50.762;7.000;2022-12-29T00:09:31;0.70;;;0.70;;
14883;SDS011;7534;50.762;7.000;2022-12-29T00:11:58;0.87;;;0.87;;
14883;SDS011;7534;50.762;7.000;2022-12-29T00:14:25;0.60;;;0.60;;
14883;SDS011;7534;50.762;7.000;2022-12-29T00:17:10;2.03;;;0.87;;
14883;SDS011;7534;50.762;7.000;2022-12-29T00:19:37;0.60;;;0.60;;
14883;SDS011;7534;50.762;7.000;2022-12-29T00:22:21;0.73;;;0.70;;
14883;SDS011;7534;50.762;7.000;2022-12-29T00:28:54;1.90;;;0.90;;
14883;SDS011;7534;50.762;7.000;2022-12-29T00:31:38;0.60;;;0.60;;
14883;SDS011;7534;50.762;7.000;2022-12-29T00:34:22;0.70;;;0.70;;
14883;SDS011;7534;50.762;7.000;2022-12-29T00:37:06;0.50;;;0.50;;
14883;SDS011;7534;50.762;7.000;2022-12-29T00:39:32;0.60;;;0.60;;
14883;SDS011;7534;50.762;7.000;2022-12-29T00:42:16;0.60;;;0.60;;
14883;SDS011;7534;50.762;7.000;2022-12-29T00:45:00;0.70;;;0.70;;
14883;SDS011;7534;50.762;7.000;2022-12-29T00:47:25;0.60;;;0.60;;
14883;SDS011;7534;50.762;7.000;2022-12-29T00:49:51;0.70;;;0.70;;
14883;SDS011;7534;50.762;7.000;2022-12-29T00:52:17;0.60;;;0.60;;
14883;SDS011;7534;50.762;7.000;2022-12-29T00:54:43;0.50;;;0.50;;
14883;SDS011;7534;50.762;7.000;2022-12-29T00:57:11;0.60;;;0.60;;
14883;SDS011;7534;50.762;7.000;2022-12-29T00:59:38;0.50;;;0.50;;
14883;SDS011;7534;50.762;7.000;2022-12-29T01:02:09;0.50;;;0.50;;
14883;SDS011;7534;50.762;7.000;2022-12-29T01:04:38;0.70;;;0.67;;
14883;SDS011;7534;50.762;7.000;2022-12-29T01:07:17;1.00;;;0.50;;
14883;SDS011;7534;50.762;7.000;2022-12-29T01:09:43;0.40;;;0.40;;
14883;SDS011;7534;50.762;7.000;2022-12-29T01:12:28;0.60;;;0.50;;
14883;SDS011;7534;50.762;7.000;2022-12-29T01:15:07;0.40;;;0.40;;
14883;SDS011;7534;50.762;7.000;2022-12-29T01:17:39;0.40;;;0.40;;
14883;SDS011;7534;50.762;7.000;2022-12-29T01:20:06;0.40;;;0.40;;
14883;SDS011;7534;50.762;7.000;2022-12-29T01:22:33;0.40;;;0.40;;
14883;SDS011;7534;50.762;7.000;2022-12-29T01:24:58;0.67;;;0.40;;
14883;SDS011;7534;50.762;7.000;2022-12-29T01:27:24;0.50;;;0.50;;
14883;SDS011;7534;50.762;7.000;2022-12-29T01:29:51;0.57;;;0.53;;
14883;SDS011;7534;50.762;7.000;2022-12-29T01:32:19;0.60;;;0.60;;
14883;SDS011;7534;50.762;7.000;2022-12-29T01:34:51;1.63;;;0.80;;
14883;SDS011;7534;50.762;7.000;2022-12-29T01:37:19;0.60;;;0.60;;
14883;SDS011;7534;50.762;7.000;2022-12-29T01:39:45;2.00;;;0.60;;
14883;SDS011;7534;50.762;7.000;2022-12-29T01:42:19;0.70;;;0.50;;
14883;SDS011;7534;50.762;7.000;2022-12-29T01:44:53;0.73;;;0.73;;
14883;SDS011;7534;50.762;7.000;2022-12-29T01:47:33;0.90;;;0.60;;
14883;SDS011;7534;50.762;7.000;2022-12-29T01:53:02;0.83;;;0.80;;
14883;SDS011;7534;50.762;7.000;2022-12-29T01:55:34;1.23;;;0.70;;
14883;SDS011;7534;50.762;7.000;2022-12-29T01:58:20;0.70;;;0.70;;
14883;SDS011;7534;50.762;7.000;2022-12-29T02:00:53;1.67;;;0.70;;
14883;SDS011;7534;50.762;7.000;2022-12-29T02:03:24;1.37;;;0.80;;
14883;SDS011;7534;50.762;7.000;2022-12-29T02:05:53;0.80;;;0.80;;
14883;SDS011;7534;50.762;7.000;2022-12-29T02:08:32;1.07;;;0.80;;
14883;SDS011;7534;50.762;7.000;2022-12-29T02:10:58;0.87;;;0.70;;
14883;SDS011;7534;50.762;7.000;2022-12-29T02:13:26;1.27;;;0.70;;
14883;SDS011;7534;50.762;7.000;2022-12-29T02:21:46;1.57;;;0.77;;
14883;SDS011;7534;50.762;7.000;2022-12-29T02:27:14;0.70;;;0.70;;
14883;SDS011;7534;50.762;7.000;2022-12-29T02:30:05;0.80;;;0.80;;
14883;SDS011;7534;50.762;7.000;2022-12-29T02:35:57;0.80;;;0.80;;
14883;SDS011;7534;50.762;7.000;2022-12-29T02:38:55;0.70;;;0.70;;
14883;SDS011;7534;50.762;7.000;2022-12-29T02:45:26;0.60;;;0.60;;
14883;SDS011;7534;50.762;7.000;2022-12-29T02:51:09;0.97;;;0.73;;
14883;SDS011;7534;50.762;7.000;2022-12-29T02:53:45;0.60;;;0.60;;
14883;SDS011;7534;50.762;7.000;2022-12-29T02:56:30;0.90;;;0.80;;
14883;SDS011;7534;50.762;7.000;2022-12-29T02:58:56;0.97;;;0.70;;
14883;SDS011;7534;50.762;7.000;2022-12-29T03:01:24;0.67;;;0.67;;
14883;SDS011;7534;50.762;7.000;2022-12-29T03:07:43;0.63;;;0.63;;
14883;SDS011;7534;50.762;7.000;2022-12-29T03:13:42;0.60;;;0.60;;
14883;SDS011;7534;50.762;7.000;2022-12-29T03:16:42;1.33;;;0.73;;
14883;SDS011;7534;50.762;7.000;2022-12-29T03:21:56;0.60;;;0.60;;
14883;SDS011;7534;50.762;7.000;2022-12-29T03:24:51;0.90;;;0.90;;
14883;SDS011;7534;50.762;7.000;2022-12-29T03:27:25;0.80;;;0.80;;
14883;SDS011;7534;50.762;7.000;2022-12-29T03:30:07;1.40;;;0.87;;
14883;SDS011;7534;50.762;7.000;2022-12-29T03:32:39;0.70;;;0.70;;
14883;SDS011;7534;50.762;7.000;2022-12-29T03:35:14;0.80;;;0.80;;
14883;SDS011;7534;50.762;7.000;2022-12-29T03:37:55;0.90;;;0.90;;
14883;SDS011;7534;50.762;7.000;2022-12-29T03:40:30;0.63;;;0.63;;
14883;SDS011;7534;50.762;7.000;2022-12-29T03:42:59;0.90;;;0.90;;
14883;SDS011;7534;50.762;7.000;2022-12-29T03:45:28;0.97;;;0.80;;
14883;SDS011;7534;50.762;7.000;2022-12-29T03:47:53;1.20;;;0.80;;
14883;SDS011;7534;50.762;7.000;2022-12-29T03:50:19;0.70;;;0.70;;
14883;SDS011;7534;50.762;7.000;2022-12-29T03:52:45;2.90;;;0.70;;
14883;SDS011;7534;50.762;7.000;2022-12-29T03:55:11;0.80;;;0.80;;
14883;SDS011;7534;50.762;7.000;2022-12-29T03:57:37;0.80;;;0.80;;
14883;SDS011;7534;50.762;7.000;2022-12-29T04:00:03;0.60;;;0.60;;
14883;SDS011;7534;50.762;7.000;2022-12-29T04:02:31;1.47;;;0.83;;
14883;SDS011;7534;50.762;7.000;2022-12-29T04:04:57;0.80;;;0.80;;
14883;SDS011;7534;50.762;7.000;2022-12-29T04:07:22;1.23;;;0.60;;
14883;SDS011;7534;50.762;7.000;2022-12-29T04:09:48;0.90;;;0.90;;
14883;SDS011;7534;50.762;7.000;2022-12-29T04:12:14;0.70;;;0.70;;
14883;SDS011;7534;50.762;7.000;2022-12-29T04:14:40;0.60;;;0.60;;
14883;SDS011;7534;50.762;7.000;2022-12-29T04:17:05;0.93;;;0.80;;
14883;SDS011;7534;50.762;7.000;2022-12-29T04:19:31;0.80;;;0.80;;
14883;SDS011;7534;50.762;7.000;2022-12-29T04:21:57;0.70;;;0.70;;
14883;SDS011;7534;50.762;7.000;2022-12-29T04:24:23;0.80;;;0.80;;
14883;SDS011;7534;50.762;7.000;2022-12-29T04:26:49;0.60;;;0.60;;
14883;SDS011;7534;50.762;7.000;2022-12-29T04:29:15;0.70;;;0.70;;
14883;SDS011;7534;50.762;7.000;2022-12-29T04:31:53;0.70;;;0.70;;
14883;SDS011;7534;50.762;7.000;2022-12-29T04:34:20;1.00;;;0.67;;
14883;SDS011;7534;50.762;7.000;2022-12-29T04:36:45;0.70;;;0.70;;
14883;SDS011;7534;50.762;7.000;2022-12-29T04:39:11;0.73;;;0.73;;
14883;SDS011;7534;50.762;7.000;2022-12-29T04:41:37;0.70;;;0.70;;
14883;SDS011;7534;50.762;7.000;2022-12-29T04:44:02;0.80;;;0.80;;
14883;SDS011;7534;50.762;7.000;2022-12-29T04:46:28;0.93;;;0.70;;
14883;SDS011;7534;50.762;7.000;2022-12-29T04:48:55;1.00;;;0.70;;
14883;SDS011;7534;50.762;7.000;2022-12-29T04:51:21;0.90;;;0.70;;
14883;SDS011;7534;50.762;7.000;2022-12-29T04:53:47;1.00;;;0.70;;
14883;SDS011;7534;50.762;7.000;2022-12-29T04:56:13;0.70;;;0.70;;
14883;SDS011;7534;50.762;7.000;2022-12-29T04:58:38;0.70;;;0.70;;
14883;SDS011;7534;50.762;7.000;2022-12-29T05:01:04;0.87;;;0.80;;
14883;SDS011;7534;50.762;7.000;2022-12-29T05:03:30;0.60;;;0.60;;
14883;SDS011;7534;50.762;7.000;2022-12-29T05:05:56;0.90;;;0.63;;
14883;SDS011;7534;50.762;7.000;2022-12-29T05:08:22;0.90;;;0.60;;
14883;SDS011;7534;50.762;7.000;2022-12-29T05:10:51;0.50;;;0.50;;
14883;SDS011;7534;50.762;7.000;2022-12-29T05:13:17;0.57;;;0.57;;
14883;SDS011;7534;50.762;7.000;2022-12-29T05:15:50;0.60;;;0.50;;
14883;SDS011;7534;50.762;7.000;2022-12-29T05:18:17;0.50;;;0.50;;
14883;SDS011;7534;50.762;7.000;2022-12-29T05:20:44;0.50;;;0.50;;
14883;SDS011;7534;50.762;7.000;2022-12-29T05:23:11;0.50;;;0.50;;
14883;SDS011;7534;50.762;7.000;2022-12-29T05:25:37;1.40;;;0.60;;
14883;SDS011;7534;50.762;7.000;2022-12-29T05:28:02;0.97;;;0.43;;
14883;SDS011;7534;50.762;7.000;2022-12-29T05:30:28;1.23;;;0.67;;
14883;SDS011;7534;50.762;7.000;2022-12-29T05:32:54;0.47;;;0.47;;
14883;SDS011;7534;50.762;7.000;2022-12-29T05:35:20;0.50;;;0.50;;
14883;SDS011;7534;50.762;7.000;2022-12-29T05:37:45;0.50;;;0.50;;
14883;SDS011;7534;50.762;7.000;2022-12-29T05:40:12;0.50;;;0.50;;
14883;SDS011;7534;50.762;7.000;2022-12-29T05:42:38;0.60;;;0.60;;
14883;SDS011;7534;50.762;7.000;2022-12-29T05:45:04;0.60;;;0.60;;
14883;SDS011;7534;50.762;7.000;2022-12-29T05:47:32;0.60;;;0.60;;
14883;SDS011;7534;50.762;7.000;2022-12-29T05:49:58;0.67;;;0.60;;
14883;SDS011;7534;50.762;7.000;2022-12-29T05:52:24;0.57;;;0.53;;
14883;SDS011;7534;50.762;7.000;2022-12-29T05:54:49;0.70;;;0.70;;
14883;SDS011;7534;50.762;7.000;2022-12-29T05:57:15;0.80;;;0.80;;
14883;SDS011;7534;50.762;7.000;2022-12-29T05:59:41;0.80;;;0.80;;
14883;SDS011;7534;50.762;7.000;2022-12-29T06:02:07;0.80;;;0.80;;
14883;SDS011;7534;50.762;7.000;2022-12-29T06:04:35;0.70;;;0.70;;
14883;SDS011;7534;50.762;7.000;2022-12-29T06:07:01;0.60;;;0.60;;
14883;SDS011;7534;50.762;7.000;2022-12-29T06:09:28;0.60;;;0.60;;
14883;SDS011;7534;50.762;7.000;2022-12-29T06:11:53;1.10;;;0.70;;
14883;SDS011;7534;50.762;7.000;2022-12-29T06:14:19;0.77;;;0.70;;
14883;SDS011;7534;50.762;7.000;2022-12-29T06:16:45;1.90;;;0.80;;
14883;SDS011;7534;50.762;7.000;2022-12-29T06:19:11;1.50;;;0.60;;
14883;SDS011;7534;50.762;7.000;2022-12-29T06:21:37;1.07;;;0.70;;
14883;SDS011;7534;50.762;7.000;2022-12-29T06:24:04;0.70;;;0.60;;
14883;SDS011;7534;50.762;7.000;2022-12-29T06:26:32;0.80;;;0.80;;
14883;SDS011;7534;50.762;7.000;2022-12-29T06:28:58;0.90;;;0.80;;
14883;SDS011;7534;50.762;7.000;2022-12-29T06:31:23;0.53;;;0.53;;
14883;SDS011;7534;50.762;7.000;2022-12-29T06:33:49;0.63;;;0.63;;
14883;SDS011;7534;50.762;7.000;2022-12-29T06:36:15;0.93;;;0.70;;
14883;SDS011;7534;50.762;7.000;2022-12-29T06:38:40;0.40;;;0.40;;
14883;SDS011;7534;50.762;7.000;2022-12-29T06:41:06;0.97;;;0.77;;
14883;SDS011;7534;50.762;7.000;2022-12-29T06:43:32;1.00;;;0.70;;
14883;SDS011;7534;50.762;7.000;2022-12-29T06:45:58;0.50;;;0.50;;
14883;SDS011;7534;50.762;7.000;2022-12-29T06:48:24;0.50;;;0.50;;
14883;SDS011;7534;50.762;7.000;2022-12-29T06:50:50;0.60;;;0.60;;
14883;SDS011;7534;50.762;7.000;2022-12-29T06:53:16;0.90;;;0.50;;
14883;SDS011;7534;50.762;7.000;2022-12-29T06:55:42;1.10;;;0.60;;
14883;SDS011;7534;50.762;7.000;2022-12-29T06:58:07;0.70;;;0.60;;
14883;SDS011;7534;50.762;7.000;2022-12-29T07:00:33;1.30;;;0.50;;
14883;SDS011;7534;50.762;7.000;2022-12-29T07:02:59;0.43;;;0.30;;
14883;SDS011;7534;50.762;7.000;2022-12-29T07:05:25;1.00;;;0.50;;
14883;SDS011;7534;50.762;7.000;2022-12-29T07:07:52;0.40;;;0.40;;
14883;SDS011;7534;50.762;7.000;2022-12-29T07:10:19;0.47;;;0.47;;
14883;SDS011;7534;50.762;7.000;2022-12-29T07:12:46;0.50;;;0.50;;
14883;SDS011;7534;50.762;7.000;2022-12-29T07:15:12;0.93;;;0.60;;
14883;SDS011;7534;50.762;7.000;2022-12-29T07:17:38;0.73;;;0.50;;
14883;SDS011;7534;50.762;7.000;2022-12-29T07:20:04;1.07;;;0.50;;
14883;SDS011;7534;50.762;7.000;2022-12-29T07:22:31;0.87;;;0.50;;
14883;SDS011;7534;50.762;7.000;2022-12-29T07:24:57;0.80;;;0.60;;
14883;SDS011;7534;50.762;7.000;2022-12-29T07:27:22;1.30;;;0.60;;
14883;SDS011;7534;50.762;7.000;2022-12-29T07:29:48;0.63;;;0.50;;
14883;SDS011;7534;50.762;7.000;2022-12-29T07:32:14;0.77;;;0.60;;
14883;SDS011;7534;50.762;7.000;2022-12-29T07:34:39;1.43;;;0.80;;
14883;SDS011;7534;50.762;7.000;2022-12-29T07:37:05;1.30;;;1.10;;
14883;SDS011;7534;50.762;7.000;2022-12-29T07:39:31;1.77;;;1.00;;
14883;SDS011;7534;50.762;7.000;2022-12-29T07:41:57;1.40;;;0.70;;
14883;SDS011;7534;50.762;7.000;2022-12-29T07:44:23;2.90;;;0.80;;
14883;SDS011;7534;50.762;7.000;2022-12-29T07:46:48;0.70;;;0.70;;
14883;SDS011;7534;50.762;7.000;2022-12-29T07:49:14;1.63;;;0.80;;
14883;SDS011;7534;50.762;7.000;2022-12-29T07:51:40;0.80;;;0.60;;
14883;SDS011;7534;50.762;7.000;2022-12-29T07:54:05;0.97;;;0.70;;
14883;SDS011;7534;50.762;7.000;2022-12-29T07:56:31;1.27;;;0.80;;
14883;SDS011;7534;50.762;7.000;2022-12-29T07:58:57;1.67;;;0.60;;
14883;SDS011;7534;50.762;7.000;2022-12-29T08:01:23;1.43;;;0.80;;
14883;SDS011;7534;50.762;7.000;2022-12-29T08:03:48;2.47;;;0.80;;
14883;SDS011;7534;50.762;7.000;2022-12-29T08:06:14;2.33;;;0.70;;
14883;SDS011;7534;50.762;7.000;2022-12-29T08:08:40;1.27;;;0.70;;
14883;SDS011;7534;50.762;7.000;2022-12-29T08:11:06;2.47;;;0.70;;
14883;SDS011;7534;50.762;7.000;2022-12-29T08:13:32;1.27;;;0.70;;
14883;SDS011;7534;50.762;7.000;2022-12-29T08:15:58;1.33;;;0.87;;
14883;SDS011;7534;50.762;7.000;2022-12-29T08:18:24;2.63;;;0.90;;
14883;SDS011;7534;50.762;7.000;2022-12-29T08:20:50;0.67;;;0.60;;
14883;SDS011;7534;50.762;7.000;2022-12-29T08:23:15;1.20;;;0.83;;
14883;SDS011;7534;50.762;7.000;2022-12-29T08:25:41;3.43;;;0.90;;
14883;SDS011;7534;50.762;7.000;2022-12-29T08:28:07;2.40;;;1.17;;
14883;SDS011;7534;50.762;7.000;2022-12-29T08:30:33;1.40;;;1.00;;
14883;SDS011;7534;50.762;7.000;2022-12-29T08:32:58;2.37;;;1.03;;
14883;SDS011;7534;50.762;7.000;2022-12-29T08:35:24;2.33;;;1.00;;
14883;SDS011;7534;50.762;7.000;2022-12-29T08:37:50;3.00;;;0.97;;
14883;SDS011;7534;50.762;7.000;2022-12-29T08:40:16;2.23;;;0.83;;
14883;SDS011;7534;50.762;7.000;2022-12-29T08:42:41;2.23;;;1.50;;
14883;SDS011;7534;50.762;7.000;2022-12-29T08:45:08;1.88;;;1.10;;
14883;SDS011;7534;50.762;7.000;2022-12-29T08:47:35;2.38;;;1.05;;
14883;SDS011;7534;50.762;7.000;2022-12-29T08:50:01;2.67;;;1.00;;
14883;SDS011;7534;50.762;7.000;2022-12-29T08:52:26;2.27;;;1.10;;
14883;SDS011;7534;50.762;7.000;2022-12-29T08:54:52;1.00;;;0.90;;
14883;SDS011;7534;50.762;7.000;2022-12-29T08:57:18;2.80;;;1.13;;
14883;SDS011;7534;50.762;7.000;2022-12-29T08:59:44;3.23;;;1.33;;
14883;SDS011;7534;50.762;7.000;2022-12-29T09:02:12;3.10;;;1.23;;
14883;SDS011;7534;50.762;7.000;2022-12-29T09:04:39;3.27;;;1.00;;
14883;SDS011;7534;50.762;7.000;2022-12-29T09:07:05;3.20;;;1.20;;
14883;SDS011;7534;50.762;7.000;2022-12-29T09:09:38;1.57;;;1.00;;
14883;SDS011;7534;50.762;7.000;2022-12-29T09:12:03;3.77;;;1.00;;
14883;SDS011;7534;50.762;7.000;2022-12-29T09:14:30;2.40;;;0.90;;
14883;SDS011;7534;50.762;7.000;2022-12-29T09:16:56;2.90;;;1.10;;
14883;SDS011;7534;50.762;7.000;2022-12-29T09:19:40;2.97;;;1.33;;
14883;SDS011;7534;50.762;7.000;2022-12-29T09:22:06;2.40;;;0.93;;
14883;SDS011;7534;50.762;7.000;2022-12-29T09:24:32;1.20;;;0.87;;
14883;SDS011;7534;50.762;7.000;2022-12-29T09:26:57;2.03;;;1.10;;
14883;SDS011;7534;50.762;7.000;2022-12-29T09:29:23;2.93;;;1.20;;
14883;SDS011;7534;50.762;7.000;2022-12-29T09:31:49;2.53;;;1.00;;
14883;SDS011;7534;50.762;7.000;2022-12-29T09:34:15;3.50;;;1.20;;
14883;SDS011;7534;50.762;7.000;2022-12-29T09:36:40;3.30;;;1.20;;
14883;SDS011;7534;50.762;7.000;2022-12-29T09:39:06;1.13;;;1.00;;
14883;SDS011;7534;50.762;7.000;2022-12-29T09:44:20;2.87;;;1.23;;
14883;SDS011;7534;50.762;7.000;2022-12-29T09:47:25;2.60;;;1.10;;
14883;SDS011;7534;50.762;7.000;2022-12-29T09:49:54;1.47;;;0.90;;
14883;SDS011;7534;50.762;7.000;2022-12-29T09:52:32;1.83;;;1.00;;
14883;SDS011;7534;50.762;7.000;2022-12-29T09:55:17;2.70;;;1.00;;
14883;SDS011;7534;50.762;7.000;2022-12-29T09:57:59;2.33;;;1.10;;
14883;SDS011;7534;50.762;7.000;2022-12-29T10:00:38;2.60;;;1.10;;
14883;SDS011;7534;50.762;7.000;2022-12-29T10:03:24;4.43;;;1.10;;
14883;SDS011;7534;50.762;7.000;2022-12-29T10:09:02;3.33;;;1.10;;
14883;SDS011;7534;50.762;7.000;2022-12-29T10:18:08;3.23;;;1.40;;
14883;SDS011;7534;50.762;7.000;2022-12-29T10:23:53;3.33;;;1.10;;
14883;SDS011;7534;50.762;7.000;2022-12-29T10:26:23;3.10;;;1.27;;
14883;SDS011;7534;50.762;7.000;2022-12-29T10:29:05;3.73;;;1.10;;
14883;SDS011;7534;50.762;7.000;2022-12-29T10:31:50;4.77;;;1.20;;
14883;SDS011;7534;50.762;7.000;2022-12-29T10:34:38;3.00;;;1.00;;
14883;SDS011;7534;50.762;7.000;2022-12-29T10:37:27;4.03;;;1.33;;
14883;SDS011;7534;50.762;7.000;2022-12-29T10:40:14;2.83;;;1.33;;
14883;SDS011;7534;50.762;7.000;2022-12-29T10:42:57;2.80;;;1.20;;
14883;SDS011;7534;50.762;7.000;2022-12-29T10:45:24;4.70;;;1.20;;
14883;SDS011;7534;50.762;7.000;2022-12-29T10:50:29;2.27;;;1.07;;
14883;SDS011;7534;50.762;7.000;2022-12-29T10:52:56;3.43;;;1.20;;
14883;SDS011;7534;50.762;7.000;2022-12-29T10:55:28;3.07;;;1.13;;
14883;SDS011;7534;50.762;7.000;2022-12-29T10:58:02;3.00;;;1.03;;
14883;SDS011;7534;50.762;7.000;2022-12-29T11:00:34;3.30;;;1.10;;
14883;SDS011;7534;50.762;7.000;2022-12-29T11:06:22;2.37;;;1.10;;
14883;SDS011;7534;50.762;7.000;2022-12-29T11:09:13;2.40;;;1.10;;
14883;SDS011;7534;50.762;7.000;2022-12-29T11:11:52;4.20;;;1.20;;
14883;SDS011;7534;50.762;7.000;2022-12-29T11:14:28;2.10;;;1.00;;
14883;SDS011;7534;50.762;7.000;2022-12-29T11:17:00;3.43;;;1.10;;
14883;SDS011;7534;50.762;7.000;2022-12-29T11:19:30;3.60;;;1.30;;
14883;SDS011;7534;50.762;7.000;2022-12-29T11:22:19;2.87;;;1.33;;
14883;SDS011;7534;50.762;7.000;2022-12-29T11:24:50;4.13;;;1.00;;
14883;SDS011;7534;50.762;7.000;2022-12-29T11:27:20;4.17;;;1.37;;
14883;SDS011;7534;50.762;7.000;2022-12-29T11:29:51;2.53;;;1.40;;
14883;SDS011;7534;50.762;7.000;2022-12-29T11:32:26;2.00;;;1.20;;
14883;SDS011;7534;50.762;7.000;2022-12-29T11:34:57;3.47;;;1.47;;
14883;SDS011;7534;50.762;7.000;2022-12-29T11:40:15;3.20;;;1.40;;
14883;SDS011;7534;50.762;7.000;2022-12-29T11:42:52;3.00;;;1.30;;
14883;SDS011;7534;50.762;7.000;2022-12-29T11:45:23;4.87;;;1.40;;
14883;SDS011;7534;50.762;7.000;2022-12-29T11:48:07;3.23;;;1.40;;
14883;SDS011;7534;50.762;7.000;2022-12-29T11:50:48;4.70;;;1.40;;
14883;SDS011;7534;50.762;7.000;2022-12-29T11:53:20;5.95;;;1.60;;
14883;SDS011;7534;50.762;7.000;2022-12-29T11:56:01;4.57;;;1.50;;
14883;SDS011;7534;50.762;7.000;2022-12-29T11:58:33;5.30;;;1.30;;
14883;SDS011;7534;50.762;7.000;2022-12-29T12:01:44;2.47;;;1.10;;
14883;SDS011;7534;50.762;7.000;2022-12-29T12:06:43;4.27;;;1.13;;
14883;SDS011;7534;50.762;7.000;2022-12-29T12:09:38;4.93;;;1.53;;
14883;SDS011;7534;50.762;7.000;2022-12-29T12:15:34;3.50;;;1.20;;
14883;SDS011;7534;50.762;7.000;2022-12-29T12:22:38;5.43;;;1.80;;
14883;SDS011;7534;50.762;7.000;2022-12-29T12:25:19;5.43;;;1.50;;
14883;SDS011;7534;50.762;7.000;2022-12-29T12:28:09;3.07;;;1.23;;
14883;SDS011;7534;50.762;7.000;2022-12-29T12:31:02;3.40;;;1.20;;
14883;SDS011;7534;50.762;7.000;2022-12-29T12:33:54;2.77;;;1.10;;
14883;SDS011;7534;50.762;7.000;2022-12-29T12:39:27;3.93;;;1.17;;
14883;SDS011;7534;50.762;7.000;2022-12-29T12:45:25;4.33;;;1.37;;
14883;SDS011;7534;50.762;7.000;2022-12-29T12:48:09;5.47;;;1.30;;
14883;SDS011;7534;50.762;7.000;2022-12-29T13:16:50;2.77;;;1.10;;
14883;SDS011;7534;50.762;7.000;2022-12-29T13:22:25;4.07;;;1.10;;
14883;SDS011;7534;50.762;7.000;2022-12-29T13:25:39;4.87;;;1.23;;
14883;SDS011;7534;50.762;7.000;2022-12-29T13:31:11;4.37;;;1.40;;
14883;SDS011;7534;50.762;7.000;2022-12-29T13:41:57;3.90;;;1.30;;
14883;SDS011;7534;50.762;7.000;2022-12-29T13:44:27;4.83;;;1.30;;
14883;SDS011;7534;50.762;7.000;2022-12-29T13:47:00;4.63;;;1.30;;
14883;SDS011;7534;50.762;7.000;2022-12-29T13:49:38;3.43;;;1.13;;
14883;SDS011;7534;50.762;7.000;2022-12-29T13:52:11;2.67;;;1.10;;
14883;SDS011;7534;50.762;7.000;2022-12-29T13:55:17;4.90;;;1.20;;
14883;SDS011;7534;50.762;7.000;2022-12-29T13:58:13;5.83;;;1.50;;
14883;SDS011;7534;50.762;7.000;2022-12-29T14:00:57;5.30;;;1.50;;
14883;SDS011;7534;50.762;7.000;2022-12-29T14:03:49;4.33;;;1.40;;
14883;SDS011;7534;50.762;7.000;2022-12-29T14:09:04;4.23;;;1.53;;
14883;SDS011;7534;50.762;7.000;2022-12-29T14:11:50;2.20;;;1.00;;
14883;SDS011;7534;50.762;7.000;2022-12-29T14:14:20;4.63;;;1.40;;
14883;SDS011;7534;50.762;7.000;2022-12-29T14:16:52;3.60;;;1.20;;
14883;SDS011;7534;50.762;7.000;2022-12-29T14:19:30;4.47;;;1.40;;
14883;SDS011;7534;50.762;7.000;2022-12-29T14:22:06;4.17;;;1.20;;
14883;SDS011;7534;50.762;7.000;2022-12-29T14:27:00;2.97;;;1.37;;
14883;SDS011;7534;50.762;7.000;2022-12-29T14:29:47;3.27;;;1.30;;
14883;SDS011;7534;50.762;7.000;2022-12-29T14:34:59;4.07;;;1.40;;
14883;SDS011;7534;50.762;7.000;2022-12-29T14:38:06;5.35;;;1.70;;
14883;SDS011;7534;50.762;7.000;2022-12-29T14:41:15;3.37;;;1.27;;
14883;SDS011;7534;50.762;7.000;2022-12-29T14:43:53;4.27;;;1.43;;
14883;SDS011;7534;50.762;7.000;2022-12-29T14:46:24;3.87;;;1.30;;
14883;SDS011;7534;50.762;7.000;2022-12-29T14:48:54;5.00;;;1.43;;
14883;SDS011;7534;50.762;7.000;2022-12-29T14:51:28;6.37;;;1.40;;
14883;SDS011;7534;50.762;7.000;2022-12-29T14:57:19;3.33;;;1.40;;
14883;SDS011;7534;50.762;7.000;2022-12-29T15:00:16;6.90;;;1.40;;
14883;SDS011;7534;50.762;7.000;2022-12-29T15:02:46;5.13;;;1.30;;
14883;SDS011;7534;50.762;7.000;2022-12-29T15:05:43;4.82;;;1.60;;
14883;SDS011;7534;50.762;7.000;2022-12-29T15:08:17;3.67;;;1.53;;
14883;SDS011;7534;50.762;7.000;2022-12-29T15:10:49;2.97;;;1.20;;
14883;SDS011;7534;50.762;7.000;2022-12-29T15:13:22;2.57;;;1.10;;
14883;SDS011;7534;50.762;7.000;2022-12-29T15:15:57;3.20;;;1.10;;
14883;SDS011;7534;50.762;7.000;2022-12-29T15:18:28;3.77;;;1.40;;
14883;SDS011;7534;50.762;7.000;2022-12-29T15:21:00;4.57;;;1.40;;
14883;SDS011;7534;50.762;7.000;2022-12-29T15:23:31;2.73;;;1.10;;
14883;SDS011;7534;50.762;7.000;2022-12-29T15:28:44;4.70;;;1.30;;
14883;SDS011;7534;50.762;7.000;2022-12-29T15:33:50;2.77;;;1.30;;
14883;SDS011;7534;50.762;7.000;2022-12-29T15:36:28;3.50;;;1.23;;
14883;SDS011;7534;50.762;7.000;2022-12-29T15:39:17;3.17;;;1.27;;
14883;SDS011;7534;50.762;7.000;2022-12-29T15:42:18;2.07;;;1.40;;
14883;SDS011;7534;50.762;7.000;2022-12-29T15:44:55;3.47;;;1.50;;
14883;SDS011;7534;50.762;7.000;2022-12-29T15:47:22;3.93;;;1.40;;
14883;SDS011;7534;50.762;7.000;2022-12-29T15:50:02;3.95;;;1.60;;
14883;SDS011;7534;50.762;7.000;2022-12-29T15:52:34;3.30;;;1.43;;
14883;SDS011;7534;50.762;7.000;2022-12-29T15:55:04;5.33;;;1.50;;
14883;SDS011;7534;50.762;7.000;2022-12-29T15:57:35;2.77;;;1.30;;
14883;SDS011;7534;50.762;7.000;2022-12-29T16:00:26;3.20;;;1.03;;
14883;SDS011;7534;50.762;7.000;2022-12-29T16:03:03;7.27;;;1.40;;
14883;SDS011;7534;50.762;7.000;2022-12-29T16:05:39;3.57;;;1.20;;
14883;SDS011;7534;50.762;7.000;2022-12-29T16:08:27;5.07;;;1.37;;
14883;SDS011;7534;50.762;7.000;2022-12-29T16:10:59;3.47;;;1.47;;
14883;SDS011;7534;50.762;7.000;2022-12-29T16:13:29;2.50;;;1.20;;
14883;SDS011;7534;50.762;7.000;2022-12-29T16:16:01;4.80;;;1.30;;
14883;SDS011;7534;50.762;7.000;2022-12-29T16:18:35;5.47;;;1.60;;
14883;SDS011;7534;50.762;7.000;2022-12-29T16:21:06;3.30;;;1.20;;
14883;SDS011;7534;50.762;7.000;2022-12-29T16:23:52;5.43;;;1.50;;
14883;SDS011;7534;50.762;7.000;2022-12-29T16:26:31;1.80;;;1.03;;
14883;SDS011;7534;50.762;7.000;2022-12-29T16:28:58;6.20;;;1.70;;
14883;SDS011;7534;50.762;7.000;2022-12-29T16:34:23;2.70;;;1.37;;
14883;SDS011;7534;50.762;7.000;2022-12-29T16:36:54;5.90;;;1.70;;
14883;SDS011;7534;50.762;7.000;2022-12-29T16:39:39;2.37;;;1.10;;
14883;SDS011;7534;50.762;7.000;2022-12-29T16:50:35;6.67;;;2.60;;
14883;SDS011;7534;50.762;7.000;2022-12-29T16:53:05;4.83;;;1.90;;
14883;SDS011;7534;50.762;7.000;2022-12-29T16:55:50;6.43;;;1.87;;
14883;SDS011;7534;50.762;7.000;2022-12-29T16:58:19;3.30;;;1.50;;
14883;SDS011;7534;50.762;7.000;2022-12-29T17:00:52;5.93;;;1.93;;
14883;SDS011;7534;50.762;7.000;2022-12-29T17:03:22;7.27;;;2.37;;
14883;SDS011;7534;50.762;7.000;2022-12-29T17:05:56;4.50;;;1.63;;
14883;SDS011;7534;50.762;7.000;2022-12-29T17:08:22;6.07;;;1.73;;
14883;SDS011;7534;50.762;7.000;2022-12-29T17:10:50;5.13;;;1.60;;
14883;SDS011;7534;50.762;7.000;2022-12-29T17:13:38;5.87;;;1.70;;
14883;SDS011;7534;50.762;7.000;2022-12-29T17:16:07;5.03;;;1.60;;
14883;SDS011;7534;50.762;7.000;2022-12-29T17:18:38;6.67;;;1.80;;
14883;SDS011;7534;50.762;7.000;2022-12-29T17:21:04;5.30;;;1.70;;
14883;SDS011;7534;50.762;7.000;2022-12-29T17:23:31;4.90;;;1.30;;
14883;SDS011;7534;50.762;7.000;2022-12-29T17:25:58;6.70;;;1.90;;
14883;SDS011;7534;50.762;7.000;2022-12-29T17:28:26;3.90;;;1.73;;
14883;SDS011;7534;50.762;7.000;2022-12-29T17:31:03;4.30;;;1.73;;
14883;SDS011;7534;50.762;7.000;2022-12-29T17:33:34;7.70;;;1.87;;
14883;SDS011;7534;50.762;7.000;2022-12-29T17:36:04;6.97;;;1.80;;
14883;SDS011;7534;50.762;7.000;2022-12-29T17:38:30;7.20;;;1.83;;
14883;SDS011;7534;50.762;7.000;2022-12-29T17:41:00;3.93;;;1.73;;
14883;SDS011;7534;50.762;7.000;2022-12-29T17:43:26;7.20;;;2.20;;
14883;SDS011;7534;50.762;7.000;2022-12-29T17:45:52;10.17;;;2.17;;
14883;SDS011;7534;50.762;7.000;2022-12-29T17:48:21;5.23;;;1.70;;
14883;SDS011;7534;50.762;7.000;2022-12-29T17:50:47;3.53;;;1.43;;
14883;SDS011;7534;50.762;7.000;2022-12-29T17:53:23;7.13;;;1.80;;
14883;SDS011;7534;50.762;7.000;2022-12-29T17:55:54;6.93;;;2.00;;